Time;durP1;ratioP1;P1;durP2;ratioP2;P2;SDS_P1;SDS_P2;PMS_P1;PMS_P2;Temp;Humidity;BMP_temperature;BMP_pressure;BME280_temperature;BME280_humidity;BME280_pressure;Samples;Min_cycle;Max_cycle;Signal;HPM_P1;HPM_P2
2022/07/25 00:01:19;;;;;;;7.70;6.72;;;;;;;21.83;69.34;100934.97;4972582;28;20035;-85
2022/07/25 00:03:44;;;;;;;8.23;7.07;;;;;;;21.85;68.96;100943.63;4974739;28;20471;-85
2022/07/25 00:06:09;;;;;;;8.20;6.07;;;;;;;21.75;69.10;100936.63;4975151;28;20376;-86
2022/07/25 00:08:35;;;;;;;8.83;5.93;;;;;;;21.75;69.45;100924.91;4975018;28;20069;-86
2022/07/25 00:11:00;;;;;;;11.23;7.10;;;;;;;21.75;69.34;100924.91;4974748;28;20101;-86
2022/07/25 00:13:25;;;;;;;10.20;6.80;;;;;;;21.72;69.30;100929.09;4974387;28;20394;-86
2022/07/25 00:15:50;;;;;;;13.15;7.10;;;;;;;21.65;70.33;100919.84;4975161;28;20475;-86
2022/07/25 00:18:16;;;;;;;11.53;6.87;;;;;;;21.62;69.93;100919.38;4974884;28;20027;-86
2022/07/25 00:20:41;;;;;;;10.47;7.80;;;;;;;21.60;69.91;100915.38;4974756;28;20023;-86
2022/07/25 00:23:06;;;;;;;7.73;6.87;;;;;;;21.60;69.93;100908.00;4974754;28;20027;-86
2022/07/25 00:25:32;;;;;;;9.17;6.97;;;;;;;21.58;69.62;100918.41;4974236;28;20033;-86
2022/07/25 00:27:57;;;;;;;10.03;6.63;;;;;;;21.57;69.65;100910.56;4974563;28;20081;-86
2022/07/25 00:30:22;;;;;;;10.87;7.20;;;;;;;21.50;69.67;100911.09;4974845;28;20259;-86
2022/07/25 00:32:47;;;;;;;10.45;7.50;;;;;;;21.44;70.23;100904.22;4957554;28;20548;-86
2022/07/25 00:35:13;;;;;;;8.70;7.13;;;;;;;21.43;70.10;100908.09;4974086;28;20039;-86
2022/07/25 00:37:38;;;;;;;11.80;7.53;;;;;;;21.41;70.30;100896.72;4974572;28;20027;-86
2022/07/25 00:40:04;;;;;;;9.33;7.43;;;;;;;21.39;70.28;100898.97;4974408;28;20034;-86
2022/07/25 00:42:29;;;;;;;9.85;6.88;;;;;;;21.36;70.35;100896.94;4974324;28;20027;-86
2022/07/25 00:44:55;;;;;;;10.73;7.43;;;;;;;21.31;70.21;100895.97;4974165;28;20030;-86
2022/07/25 00:47:20;;;;;;;9.57;7.33;;;;;;;21.31;70.32;100889.72;4974288;28;20118;-86
2022/07/25 00:49:45;;;;;;;10.73;7.20;;;;;;;21.27;70.56;100881.41;4974388;28;20399;-86
2022/07/25 00:52:11;;;;;;;12.23;7.33;;;;;;;21.21;70.82;100880.00;4974345;28;20750;-86
2022/07/25 00:54:36;;;;;;;12.17;7.00;;;;;;;21.21;70.87;100882.72;4973794;28;20045;-86
2022/07/25 00:57:01;;;;;;;7.63;6.83;;;;;;;21.17;71.08;100879.06;4973976;28;20023;-86
2022/07/25 00:59:26;;;;;;;10.00;7.20;;;;;;;21.09;71.37;100879.91;4974114;28;20639;-86
2022/07/25 01:01:52;;;;;;;9.10;7.20;;;;;;;21.06;71.12;100878.66;4973944;28;20023;-86
2022/07/25 01:04:17;;;;;;;8.20;7.40;;;;;;;21.06;72.28;100880.56;4973612;28;20034;-86
2022/07/25 01:06:43;;;;;;;9.07;7.80;;;;;;;21.01;71.47;100868.72;4973939;28;20042;-86
2022/07/25 01:09:09;;;;;;;8.50;7.20;;;;;;;20.96;71.77;100870.81;4974000;28;20034;-86
2022/07/25 01:11:34;;;;;;;12.07;7.63;;;;;;;20.96;71.78;100866.19;4973661;28;20548;-86
2022/07/25 01:13:59;;;;;;;11.10;7.97;;;;;;;20.91;71.69;100852.75;4972887;28;20061;-86
2022/07/25 01:16:24;;;;;;;11.40;7.10;;;;;;;20.91;71.68;100851.97;4973754;28;20031;-86
2022/07/25 01:18:50;;;;;;;12.87;7.60;;;;;;;20.90;71.64;100848.44;4973917;28;20022;-86
2022/07/25 01:21:15;;;;;;;12.23;8.13;;;;;;;20.85;71.82;100851.31;4973593;28;20023;-86
2022/07/25 01:23:41;;;;;;;10.88;7.13;;;;;;;20.83;71.82;100837.25;4973198;28;20059;-87
2022/07/25 01:26:06;;;;;;;11.20;7.47;;;;;;;20.80;72.12;100837.91;4973474;28;20494;-84
2022/07/25 01:28:32;;;;;;;11.83;7.10;;;;;;;20.75;71.89;100836.13;4973509;28;20309;-85
2022/07/25 01:30:57;;;;;;;12.33;8.13;;;;;;;20.72;72.28;100834.88;4973453;28;20034;-85
2022/07/25 01:33:22;;;;;;;8.70;7.10;;;;;;;20.70;72.43;100842.56;4972836;28;20122;-85
2022/07/25 01:35:49;;;;;;;12.73;7.63;;;;;;;20.68;72.46;100836.63;4973626;28;20065;-86
2022/07/25 01:38:16;;;;;;;8.82;7.55;;;;;;;20.67;72.09;100831.53;4973275;28;20490;-86
2022/07/25 01:40:42;;;;;;;8.15;7.07;;;;;;;20.64;72.48;100829.47;4973183;28;20389;-86
2022/07/25 01:43:07;;;;;;;9.88;7.75;;;;;;;20.64;72.12;100832.19;4973339;28;20019;-86
2022/07/25 01:45:33;;;;;;;9.10;7.23;;;;;;;20.63;72.65;100831.41;4972789;28;20113;-86
2022/07/25 01:47:59;;;;;;;11.02;7.55;;;;;;;20.59;72.58;100819.56;4973191;28;20026;-85
2022/07/25 01:50:24;;;;;;;11.63;7.97;;;;;;;20.56;72.64;100815.53;4973077;28;20027;-86
2022/07/25 01:52:50;;;;;;;8.80;7.53;;;;;;;20.57;72.27;100821.81;4973174;28;20549;-86
2022/07/25 01:55:16;;;;;;;7.70;6.90;;;;;;;20.60;72.61;100817.63;4972415;28;20497;-85
2022/07/25 01:57:41;;;;;;;8.15;7.32;;;;;;;20.56;72.28;100812.03;4955684;28;20043;-86
2022/07/25 02:00:10;;;;;;;9.10;7.57;;;;;;;20.56;72.56;100801.94;4972949;28;20026;-86
2022/07/25 02:02:35;;;;;;;10.35;7.65;;;;;;;20.55;72.82;100799.56;4972916;28;20030;-86
2022/07/25 02:05:01;;;;;;;11.07;7.33;;;;;;;20.57;72.20;100800.81;4972496;28;20019;-85
2022/07/25 02:07:26;;;;;;;8.60;7.37;;;;;;;20.54;72.06;100798.72;4972695;28;20517;-86
2022/07/25 02:09:51;;;;;;;9.95;6.60;;;;;;;20.53;72.85;100793.63;4972289;28;20054;-85
2022/07/25 02:12:17;;;;;;;8.80;7.33;;;;;;;20.54;72.48;100787.06;4971895;28;20022;-86
2022/07/25 02:14:42;;;;;;;8.43;7.23;;;;;;;20.56;71.87;100787.53;4971964;28;20082;-86
2022/07/25 02:17:07;;;;;;;11.77;7.30;;;;;;;20.56;72.19;100790.25;4972691;28;20398;-85
2022/07/25 02:19:33;;;;;;;8.63;7.47;;;;;;;20.60;72.41;100790.41;4972672;28;20145;-86
2022/07/25 02:21:58;;;;;;;9.30;7.68;;;;;;;20.58;71.99;100788.78;4972476;28;20023;-86
2022/07/25 02:24:23;;;;;;;9.53;7.30;;;;;;;20.55;72.08;100781.28;4971968;28;20027;-85
2022/07/25 02:26:49;;;;;;;7.70;6.93;;;;;;;20.56;72.06;100787.53;4972344;28;20059;-85
2022/07/25 02:29:14;;;;;;;9.17;7.27;;;;;;;20.52;72.61;100792.84;4973196;28;20030;-85
2022/07/25 02:31:39;;;;;;;10.90;7.20;;;;;;;20.54;71.67;100785.13;4972697;28;20027;-85
2022/07/25 02:34:05;;;;;;;12.43;6.95;;;;;;;20.52;71.54;100786.59;4972246;28;20027;-85
2022/07/25 02:36:30;;;;;;;11.70;7.30;;;;;;;20.49;71.65;100781.78;4972563;28;20070;-85
2022/07/25 02:38:55;;;;;;;13.97;6.80;;;;;;;20.43;71.94;100779.28;4972326;28;20027;-86
2022/07/25 02:41:21;;;;;;;8.57;6.97;;;;;;;20.45;72.26;100776.22;4972239;28;20030;-85
2022/07/25 02:43:46;;;;;;;8.00;7.10;;;;;;;20.38;72.19;100771.28;4971848;28;20031;-86
2022/07/25 02:46:11;;;;;;;8.03;6.77;;;;;;;20.36;72.11;100770.03;4972785;28;20438;-85
2022/07/25 02:48:37;;;;;;;10.82;7.03;;;;;;;20.35;72.60;100769.22;4972431;28;20062;-85
2022/07/25 02:51:02;;;;;;;9.50;6.33;;;;;;;20.32;72.33;100764.41;4972184;28;20018;-85
2022/07/25 02:53:28;;;;;;;9.20;7.20;;;;;;;20.26;72.23;100754.84;4971485;28;20106;-85
2022/07/25 02:55:53;;;;;;;8.85;7.15;;;;;;;20.24;72.38;100759.81;4972146;28;20039;-85
2022/07/25 02:58:18;;;;;;;9.23;6.70;;;;;;;20.21;72.42;100755.81;4972279;28;20034;-85
2022/07/25 03:00:44;;;;;;;8.00;7.20;;;;;;;20.24;72.07;100767.97;4972190;28;20059;-85
2022/07/25 03:03:09;;;;;;;8.03;7.00;;;;;;;20.18;72.28;100753.72;4972073;28;20102;-85
2022/07/25 03:05:34;;;;;;;9.25;6.63;;;;;;;20.18;71.94;100767.34;4971616;28;20058;-85
2022/07/25 03:08:00;;;;;;;11.10;7.33;;;;;;;20.10;72.74;100758.06;4971925;28;20655;-85
2022/07/25 03:10:25;;;;;;;8.10;6.87;;;;;;;20.08;72.75;100754.91;4971732;28;20031;-85
2022/07/25 03:12:51;;;;;;;10.67;7.60;;;;;;;20.06;72.73;100753.63;4964282;28;20573;-86
2022/07/25 03:15:16;;;;;;;11.00;6.90;;;;;;;20.04;72.52;100734.91;4971375;28;20390;-85
2022/07/25 03:17:41;;;;;;;8.77;6.78;;;;;;;20.03;72.50;100736.03;4972034;28;20031;-85
2022/07/25 03:20:08;;;;;;;11.77;7.50;;;;;;;20.01;72.24;100730.13;4971634;28;20054;-85
2022/07/25 03:22:33;;;;;;;7.23;6.47;;;;;;;20.02;72.24;100734.44;4971793;28;20035;-85
2022/07/25 03:24:59;;;;;;;8.83;6.77;;;;;;;20.01;71.94;100735.56;4971322;28;20290;-85
2022/07/25 03:27:24;;;;;;;8.10;6.72;;;;;;;19.97;72.36;100734.59;4971980;28;20034;-85
2022/07/25 03:29:49;;;;;;;8.30;7.27;;;;;;;20.01;72.06;100734.75;4971852;28;20046;-85
2022/07/25 03:32:15;;;;;;;11.80;7.07;;;;;;;20.02;72.25;100737.16;4971599;28;20029;-85
2022/07/25 03:34:40;;;;;;;7.40;6.67;;;;;;;19.98;72.05;100733.47;4953954;28;20034;-85
2022/07/25 03:37:05;;;;;;;9.20;6.73;;;;;;;19.95;71.69;100725.97;4957009;28;20019;-85
2022/07/25 03:39:32;;;;;;;9.00;6.93;;;;;;;19.95;72.35;100734.13;4975421;28;20050;-85
2022/07/25 03:41:57;;;;;;;11.15;7.07;;;;;;;19.95;72.47;100728.69;4975649;28;20391;-86
2022/07/25 03:44:24;;;;;;;9.63;6.97;;;;;;;19.98;71.51;100725.31;4974936;28;20050;-85
2022/07/25 03:46:49;;;;;;;7.90;6.75;;;;;;;20.02;72.16;100726.28;4975374;28;20113;-86
2022/07/25 03:49:15;;;;;;;11.13;7.32;;;;;;;20.00;71.96;100733.97;4975380;28;20125;-86
2022/07/25 03:51:40;;;;;;;8.63;6.53;;;;;;;19.99;71.26;100729.63;4975341;28;20023;-85
2022/07/25 03:54:07;;;;;;;12.57;6.97;;;;;;;19.99;71.38;100726.91;4974714;28;20031;-85
2022/07/25 03:56:36;;;;;;;12.23;6.93;;;;;;;19.99;71.27;100717.97;4975147;28;20161;-85
2022/07/25 03:59:03;;;;;;;11.27;6.70;;;;;;;19.99;71.28;100731.56;4975117;28;20035;-85
2022/07/25 04:01:28;;;;;;;7.68;6.88;;;;;;;20.00;72.17;100725.81;4975197;28;20054;-86
2022/07/25 04:03:54;;;;;;;7.77;6.77;;;;;;;20.08;71.10;100721.47;4974409;28;20074;-86
2022/07/25 04:06:19;;;;;;;7.23;6.20;;;;;;;20.11;70.82;100712.66;4974817;28;20033;-85
2022/07/25 04:08:45;;;;;;;10.00;6.33;;;;;;;20.12;70.42;100712.31;4974752;28;20471;-86
2022/07/25 04:11:10;;;;;;;7.97;6.40;;;;;;;20.14;71.00;100706.56;4974796;28;20027;-86
2022/07/25 04:13:36;;;;;;;8.40;6.43;;;;;;;20.20;70.65;100705.25;4974339;28;20057;-86
2022/07/25 04:16:01;;;;;;;8.67;6.13;;;;;;;20.22;70.40;100710.38;4975049;28;20494;-85
2022/07/25 04:18:26;;;;;;;8.30;6.57;;;;;;;20.28;71.15;100714.50;4974889;28;20046;-85
2022/07/25 04:20:52;;;;;;;9.30;6.30;;;;;;;20.30;70.90;100712.25;4974915;28;20497;-85
2022/07/25 04:23:17;;;;;;;8.27;6.17;;;;;;;20.34;70.96;100710.47;4974205;28;20031;-85
2022/07/25 04:25:42;;;;;;;8.67;6.00;;;;;;;20.41;70.13;100712.69;4974453;28;20035;-85
2022/07/25 04:28:08;;;;;;;7.27;6.03;;;;;;;20.46;69.95;100714.41;4974705;28;20106;-85
2022/07/25 04:30:33;;;;;;;6.33;5.73;;;;;;;20.53;70.02;100709.25;4974490;28;20282;-85
2022/07/25 04:32:59;;;;;;;7.00;5.60;;;;;;;20.59;69.58;100707.97;4974611;28;20121;-85
2022/07/25 04:35:24;;;;;;;7.07;5.73;;;;;;;20.61;68.15;100703.00;4956453;28;20082;-85
2022/07/25 04:37:49;;;;;;;10.70;6.03;;;;;;;20.68;68.28;100703.25;4974546;28;20030;-85
2022/07/25 04:40:15;;;;;;;6.40;5.60;;;;;;;20.74;68.13;100703.84;4974164;28;20026;-85
2022/07/25 04:42:40;;;;;;;7.60;5.47;;;;;;;20.79;67.33;100709.13;4974432;28;20023;-85
2022/07/25 04:45:06;;;;;;;7.17;5.67;;;;;;;20.88;66.79;100717.25;4973699;28;20027;-85
2022/07/25 04:47:31;;;;;;;8.30;5.70;;;;;;;20.97;66.13;100714.47;4972864;28;20282;-85
2022/07/25 04:49:57;;;;;;;6.47;5.47;;;;;;;21.02;66.14;100717.00;4974015;28;20027;-85
2022/07/25 04:52:22;;;;;;;7.73;5.63;;;;;;;21.05;65.80;100705.44;4974209;28;20049;-85
2022/07/25 04:54:47;;;;;;;6.70;5.50;;;;;;;21.12;65.68;100707.63;4973577;28;20645;-85
2022/07/25 04:57:13;;;;;;;10.10;5.20;;;;;;;21.20;65.15;100703.25;4974179;28;20081;-85
2022/07/25 04:59:38;;;;;;;7.20;5.30;;;;;;;21.26;65.20;100702.69;4974021;28;20546;-84
2022/07/25 05:02:03;;;;;;;8.47;5.60;;;;;;;21.33;64.92;100697.53;4956762;28;20490;-85
2022/07/25 05:04:28;;;;;;;6.47;5.23;;;;;;;21.53;64.75;100713.38;4973404;28;20121;-85
2022/07/25 05:06:54;;;;;;;8.07;5.60;;;;;;;21.84;63.60;100715.66;4973796;28;20023;-85
2022/07/25 05:09:19;;;;;;;8.27;5.83;;;;;;;21.96;62.96;100706.72;4973849;28;20518;-85
2022/07/25 05:11:44;;;;;;;8.87;5.83;;;;;;;22.19;62.58;100707.06;4973992;28;20293;-85
2022/07/25 05:14:09;;;;;;;9.23;5.60;;;;;;;22.24;61.99;100715.03;4973145;28;20022;-85
2022/07/25 05:16:35;;;;;;;7.67;5.33;;;;;;;22.51;61.56;100701.09;4973730;28;20094;-85
2022/07/25 05:19:00;;;;;;;9.53;5.37;;;;;;;22.87;60.42;100706.81;4973694;28;20494;-85
2022/07/25 05:21:26;;;;;;;8.97;4.93;;;;;;;23.21;59.30;100712.91;4973388;28;20037;-85
2022/07/25 05:23:52;;;;;;;8.18;4.93;;;;;;;23.64;57.63;100714.09;4965675;28;20026;-85
2022/07/25 05:26:18;;;;;;;12.43;5.33;;;;;;;24.02;56.66;100710.00;4973706;28;20034;-85
2022/07/25 05:28:43;;;;;;;8.95;5.80;;;;;;;24.02;56.09;100711.94;4973632;28;20042;-85
2022/07/25 05:31:09;;;;;;;7.50;5.30;;;;;;;23.90;56.27;100718.28;4973342;28;20031;-85
2022/07/25 05:33:34;;;;;;;8.05;5.03;;;;;;;23.76;56.74;100699.56;4972559;28;20518;-85
2022/07/25 05:36:02;;;;;;;7.90;5.60;;;;;;;23.68;56.44;100708.69;4973277;28;20102;-85
2022/07/25 05:38:27;;;;;;;9.07;5.25;;;;;;;23.55;56.95;100713.47;4973315;28;20027;-85
2022/07/25 05:40:52;;;;;;;8.97;4.93;;;;;;;23.50;57.60;100708.25;4973355;28;20073;-85
2022/07/25 05:43:18;;;;;;;7.13;5.40;;;;;;;23.41;57.84;100716.59;4973067;28;20441;-85
2022/07/25 05:45:43;;;;;;;7.53;5.10;;;;;;;23.38;58.35;100715.34;4973092;28;20030;-85
2022/07/25 05:48:09;;;;;;;8.77;5.80;;;;;;;23.31;58.17;100717.88;4973107;28;20092;-85
2022/07/25 05:50:38;;;;;;;9.13;6.10;;;;;;;23.28;58.42;100715.84;4972796;28;20027;-85
2022/07/25 05:53:03;;;;;;;7.75;5.95;;;;;;;23.28;58.95;100713.91;4973348;28;20072;-84
2022/07/25 05:55:29;;;;;;;8.80;5.40;;;;;;;23.22;58.94;100709.84;4972414;28;20316;-84
2022/07/25 05:57:54;;;;;;;7.37;5.40;;;;;;;23.19;59.25;100715.19;4973401;28;20023;-85
2022/07/25 06:00:19;;;;;;;10.10;5.45;;;;;;;23.16;59.34;100713.13;4972626;28;20023;-84
2022/07/25 06:02:45;;;;;;;12.03;5.63;;;;;;;23.07;58.88;100721.47;4972972;28;20461;-84
2022/07/25 06:05:10;;;;;;;8.80;5.00;;;;;;;23.01;60.13;100728.31;4972249;28;20027;-85
2022/07/25 06:07:35;;;;;;;8.17;5.63;;;;;;;22.97;59.48;100726.25;4973023;28;20102;-85
2022/07/25 06:10:01;;;;;;;7.47;5.10;;;;;;;22.96;59.78;100734.81;4972874;28;20030;-85
2022/07/25 06:12:26;;;;;;;6.23;5.60;;;;;;;22.97;60.00;100744.59;4972875;28;20454;-84
2022/07/25 06:14:52;;;;;;;12.77;6.53;;;;;;;23.01;59.55;100733.78;4972365;28;20646;-84
2022/07/25 06:17:17;;;;;;;8.57;5.97;;;;;;;23.08;59.23;100740.25;4972687;28;20025;-85
2022/07/25 06:19:42;;;;;;;9.13;6.33;;;;;;;23.05;59.01;100729.22;4972604;28;20070;-84
2022/07/25 06:22:08;;;;;;;10.63;5.67;;;;;;;23.04;59.59;100744.00;4972441;28;20030;-84
2022/07/25 06:24:34;;;;;;;11.05;6.00;;;;;;;22.95;59.65;100735.94;4972219;28;20136;-84
2022/07/25 06:26:59;;;;;;;11.57;6.50;;;;;;;22.88;59.85;100747.47;4972548;28;20478;-85
2022/07/25 06:29:24;;;;;;;10.20;6.13;;;;;;;22.89;59.75;100742.78;4972498;28;20023;-84
2022/07/25 06:31:50;;;;;;;8.30;6.03;;;;;;;22.92;60.15;100742.88;4972444;28;20031;-84
2022/07/25 06:34:15;;;;;;;8.40;5.93;;;;;;;23.03;60.12;100754.13;4972034;28;20489;-84
2022/07/25 06:36:40;;;;;;;9.23;6.17;;;;;;;23.09;59.44;100747.28;4972429;28;20504;-84
2022/07/25 06:39:06;;;;;;;7.07;6.25;;;;;;;23.18;59.52;100749.13;4972513;28;20030;-85
2022/07/25 06:41:31;;;;;;;11.17;5.93;;;;;;;23.21;59.82;100749.25;4972329;28;20053;-84
2022/07/25 06:43:56;;;;;;;13.63;6.60;;;;;;;23.18;59.34;100747.16;4971835;28;20027;-84
2022/07/25 06:46:22;;;;;;;10.17;5.70;;;;;;;23.26;59.39;100745.47;4972193;28;20814;-85
2022/07/25 06:48:48;;;;;;;9.07;5.95;;;;;;;23.29;59.11;100747.50;4972065;28;20133;-84
2022/07/25 06:51:13;;;;;;;8.07;5.57;;;;;;;23.39;59.50;100754.41;4972084;28;20647;-84
2022/07/25 06:53:39;;;;;;;9.20;6.00;;;;;;;23.47;59.45;100745.25;4971547;28;20045;-85
2022/07/25 06:56:04;;;;;;;11.47;5.70;;;;;;;23.55;58.34;100749.00;4972281;28;20041;-85
2022/07/25 06:58:30;;;;;;;7.63;5.43;;;;;;;23.66;58.03;100744.63;4972193;28;20033;-85
2022/07/25 07:00:55;;;;;;;7.18;4.82;;;;;;;23.72;58.25;100740.50;4972211;28;20114;-85
2022/07/25 07:03:20;;;;;;;8.53;4.63;;;;;;;23.78;58.46;100749.25;4971839;28;20058;-85
2022/07/25 07:05:46;;;;;;;9.90;4.77;;;;;;;23.77;58.10;100749.56;4971625;28;20030;-85
2022/07/25 07:08:11;;;;;;;7.97;5.27;;;;;;;23.68;58.59;100745.06;4972044;28;20054;-85
2022/07/25 07:10:39;;;;;;;11.18;5.90;;;;;;;23.55;58.45;100738.06;4971007;28;20026;-85
2022/07/25 07:13:12;;;;;;;13.02;5.45;;;;;;;23.46;59.59;100737.41;4972079;28;20113;-85
2022/07/25 07:15:38;;;;;;;7.82;4.65;;;;;;;23.37;59.82;100732.88;4971751;28;20097;-85
2022/07/25 07:18:05;;;;;;;8.75;5.15;;;;;;;23.46;59.59;100740.16;4971978;28;20248;-86
2022/07/25 07:20:30;;;;;;;9.50;5.30;;;;;;;23.56;59.90;100745.09;4971863;28;20019;-85
2022/07/25 07:22:55;;;;;;;10.43;5.10;;;;;;;23.70;59.53;100750.19;4971835;28;20042;-85
2022/07/25 07:25:22;;;;;;;8.80;4.97;;;;;;;23.84;59.62;100747.81;4971413;28;20034;-85
2022/07/25 07:27:49;;;;;;;9.73;4.82;;;;;;;23.95;58.69;100744.59;4971780;28;20499;-85
2022/07/25 07:30:15;;;;;;;9.63;5.10;;;;;;;24.08;58.68;100742.59;4971766;28;20069;-86
2022/07/25 07:32:41;;;;;;;9.60;4.30;;;;;;;24.35;58.37;100755.41;4971482;28;20059;-85
2022/07/25 07:35:06;;;;;;;7.68;4.53;;;;;;;24.39;57.12;100743.75;4971111;28;20087;-85
2022/07/25 07:37:32;;;;;;;7.73;4.60;;;;;;;24.54;57.44;100748.41;4971573;28;20057;-85
2022/07/25 07:39:57;;;;;;;8.23;4.30;;;;;;;24.76;57.02;100763.41;4971800;28;20026;-85
2022/07/25 07:42:22;;;;;;;9.93;4.33;;;;;;;24.70;57.20;100750.31;4971692;28;20042;-85
2022/07/25 07:44:48;;;;;;;5.10;3.47;;;;;;;24.57;57.84;100761.38;4971387;28;20065;-85
2022/07/25 07:47:13;;;;;;;5.90;3.93;;;;;;;24.37;58.28;100751.50;4971341;28;20102;-85
2022/07/25 07:49:39;;;;;;;8.53;3.70;;;;;;;24.32;58.91;100761.56;4971484;28;20035;-85
2022/07/25 07:52:04;;;;;;;10.52;3.58;;;;;;;24.34;58.88;100767.50;4954199;28;20027;-85
2022/07/25 07:57:30;;;;;;;7.53;3.22;;;;;;;24.66;58.55;100766.69;4874207;29;20049;-85
2022/07/25 07:59:55;;;;;;;11.43;3.03;;;;;;;25.09;57.77;100770.41;4950694;28;20039;-85
2022/07/25 08:02:21;;;;;;;10.27;3.17;;;;;;;25.60;56.23;100765.97;4971541;28;20038;-85
2022/07/25 08:04:46;;;;;;;5.25;2.42;;;;;;;26.15;54.71;100756.78;4970973;28;20102;-85
2022/07/25 08:07:12;;;;;;;6.00;2.30;;;;;;;26.35;54.57;100768.47;4971621;28;20169;-85
2022/07/25 08:09:37;;;;;;;8.10;2.30;;;;;;;26.39;53.39;100766.59;4971272;28;20076;-85
2022/07/25 08:12:03;;;;;;;6.35;2.28;;;;;;;26.37;53.75;100766.16;4971411;28;20397;-85
2022/07/25 08:14:28;;;;;;;5.37;2.30;;;;;;;26.06;54.98;100758.94;4970724;28;20513;-85
2022/07/25 08:16:56;;;;;;;7.00;2.43;;;;;;;26.00;56.24;100763.94;4971796;28;20029;-85
2022/07/25 08:19:22;;;;;;;4.30;2.00;;;;;;;26.09;55.28;100761.75;4971476;28;20081;-85
2022/07/25 08:21:47;;;;;;;8.37;2.23;;;;;;;26.36;55.03;100761.81;4971928;28;20105;-85
2022/07/25 08:24:12;;;;;;;6.25;1.75;;;;;;;26.72;54.48;100772.56;4974365;28;20858;-84
2022/07/25 08:26:38;;;;;;;5.97;1.83;;;;;;;26.72;54.15;100776.09;4974849;28;20074;-85
2022/07/25 08:29:03;;;;;;;6.13;1.43;;;;;;;26.69;53.64;100765.84;4974511;28;20027;-85
2022/07/25 08:31:28;;;;;;;5.20;2.10;;;;;;;26.76;53.29;100774.22;4974666;28;20442;-85
2022/07/25 08:33:54;;;;;;;3.80;1.53;;;;;;;27.00;53.28;100777.72;4974280;28;20495;-85
2022/07/25 08:36:19;;;;;;;4.67;1.67;;;;;;;27.15;53.03;100783.41;4974622;28;20122;-85
2022/07/25 08:38:44;;;;;;;5.28;1.65;;;;;;;27.18;52.10;100780.69;4974544;28;20022;-85
2022/07/25 08:41:09;;;;;;;7.27;1.63;;;;;;;26.93;52.50;100782.31;4974472;28;20027;-85
2022/07/25 08:43:36;;;;;;;3.53;1.30;;;;;;;26.85;53.35;100787.72;4973806;28;20027;-85
2022/07/25 08:46:04;;;;;;;5.38;1.65;;;;;;;26.88;54.41;100788.91;4974418;28;20039;-85
2022/07/25 08:48:30;;;;;;;3.30;1.80;;;;;;;27.20;53.66;100794.09;4974182;28;20125;-85
2022/07/25 08:50:56;;;;;;;4.47;1.55;;;;;;;27.63;52.74;100785.56;4974429;28;20023;-86
2022/07/25 08:53:22;;;;;;;3.50;1.40;;;;;;;27.86;51.85;100779.09;4974003;28;20027;-85
2022/07/25 08:55:47;;;;;;;4.40;1.70;;;;;;;28.05;50.57;100773.41;4973707;28;20062;-85
2022/07/25 08:58:15;;;;;;;5.77;1.50;;;;;;;28.36;49.21;100773.28;4973951;28;20034;-85
2022/07/25 09:00:41;;;;;;;4.07;1.35;;;;;;;28.41;49.05;100768.22;4972809;28;20380;-85
2022/07/25 09:03:07;;;;;;;3.22;1.30;;;;;;;28.49;50.34;100769.03;4974090;28;20034;-85
2022/07/25 09:05:33;;;;;;;4.95;1.50;;;;;;;28.49;49.17;100779.28;4973521;28;20085;-86
2022/07/25 09:08:11;;;;;;;7.43;1.67;;;;;;;28.38;49.96;100785.53;4973875;28;20039;-85
2022/07/25 09:10:38;;;;;;;3.23;1.50;;;;;;;28.53;49.11;100786.41;4974219;28;20023;-86
2022/07/25 09:13:09;;;;;;;3.80;1.90;;;;;;;28.73;48.17;100775.13;4974036;28;20324;-85
2022/07/25 09:15:36;;;;;;;4.00;1.50;;;;;;;28.62;49.00;100782.53;4973316;28;20514;-86
2022/07/25 09:18:13;;;;;;;4.03;1.90;;;;;;;28.66;48.18;100788.88;4973716;28;20478;-85
2022/07/25 09:20:46;;;;;;;7.40;2.20;;;;;;;28.67;48.40;100793.19;4973815;28;20022;-85
2022/07/25 09:23:14;;;;;;;6.32;1.65;;;;;;;28.79;48.92;100792.91;4973588;28;20035;-85
2022/07/25 09:25:39;;;;;;;4.72;1.65;;;;;;;28.97;47.96;100804.03;4972175;28;20038;-85
2022/07/25 09:28:16;;;;;;;6.67;1.73;;;;;;;29.11;48.16;100791.53;4973616;28;20019;-85
2022/07/25 09:30:55;;;;;;;4.18;1.77;;;;;;;28.98;48.77;100800.09;4973679;28;20019;-85
2022/07/25 09:33:22;;;;;;;5.05;1.58;;;;;;;28.95;47.90;100805.59;4972428;28;20034;-85
2022/07/25 09:35:47;;;;;;;8.23;1.60;;;;;;;28.90;49.41;100808.72;4973066;28;20501;-86
2022/07/25 09:38:17;;;;;;;9.93;2.13;;;;;;;28.59;48.64;100797.84;4973341;28;20030;-86
2022/07/25 09:41:02;;;;;;;9.02;2.13;;;;;;;28.49;49.31;100813.13;4973336;28;20134;-85
2022/07/25 09:43:39;;;;;;;4.43;1.75;;;;;;;28.57;48.33;100822.28;4972840;28;20025;-85
2022/07/25 09:46:05;;;;;;;4.90;2.13;;;;;;;28.56;47.93;100824.22;4971916;28;20113;-86
2022/07/25 09:48:31;;;;;;;4.73;1.97;;;;;;;28.69;46.27;100819.22;4973272;28;20057;-86
2022/07/25 09:50:58;;;;;;;4.80;1.70;;;;;;;28.62;46.26;100815.63;4973234;28;20271;-86
2022/07/25 09:53:24;;;;;;;5.00;2.03;;;;;;;28.61;45.87;100825.81;4972887;28;20528;-86
2022/07/25 09:55:49;;;;;;;5.63;1.98;;;;;;;28.49;45.96;100815.88;4973129;28;20026;-85
2022/07/25 09:58:14;;;;;;;5.00;2.10;;;;;;;28.37;45.85;100822.50;4973242;28;20037;-86
2022/07/25 10:00:41;;;;;;;6.35;2.25;;;;;;;28.28;45.69;100826.75;4973084;28;20031;-85
2022/07/25 10:03:18;;;;;;;4.97;1.90;;;;;;;28.35;46.15;100824.84;4973343;28;20088;-85
2022/07/25 10:06:02;;;;;;;4.93;1.97;;;;;;;28.16;47.10;100827.81;4972289;28;20306;-86
2022/07/25 10:08:29;;;;;;;5.38;2.25;;;;;;;28.26;47.42;100822.41;4972914;28;20031;-85
2022/07/25 10:10:54;;;;;;;4.68;2.05;;;;;;;28.21;46.55;100831.03;4955192;28;20031;-86
2022/07/25 10:13:33;;;;;;;6.83;2.30;;;;;;;28.09;47.67;100823.00;4972421;28;20085;-86
2022/07/25 10:15:58;;;;;;;6.80;2.30;;;;;;;27.93;47.86;100826.81;4955314;28;20089;-86
2022/07/25 10:18:26;;;;;;;5.32;2.40;;;;;;;28.10;48.02;100835.66;4972762;28;20027;-86
2022/07/25 10:20:54;;;;;;;6.10;2.30;;;;;;;28.06;47.59;100834.78;4972705;28;20429;-86
2022/07/25 10:23:23;;;;;;;5.13;2.17;;;;;;;28.53;47.01;100832.47;4972392;28;20030;-85
2022/07/25 10:26:15;;;;;;;5.00;2.30;;;;;;;29.13;46.62;100833.28;4972519;28;20289;-86
2022/07/25 10:28:45;;;;;;;5.78;2.00;;;;;;;29.63;43.83;100816.16;4972483;28;20085;-86
2022/07/25 10:31:22;;;;;;;6.18;2.22;;;;;;;29.87;44.02;100824.91;4972546;28;20118;-86
2022/07/25 10:33:50;;;;;;;3.15;1.83;;;;;;;29.95;42.31;100832.03;4971745;28;20039;-85
2022/07/25 10:36:17;;;;;;;6.50;2.10;;;;;;;30.04;43.21;100826.94;4972326;28;20363;-86
2022/07/25 10:38:45;;;;;;;5.13;2.20;;;;;;;29.85;42.95;100827.28;4954834;28;20053;-86
2022/07/25 10:41:12;;;;;;;5.18;2.30;;;;;;;29.93;42.71;100817.84;4972431;28;20085;-86
2022/07/25 10:43:39;;;;;;;4.78;2.30;;;;;;;30.36;41.78;100823.41;4971826;28;20441;-86
2022/07/25 10:46:18;;;;;;;5.03;1.95;;;;;;;30.65;41.69;100834.50;4971260;28;20368;-86
2022/07/25 10:48:44;;;;;;;8.27;2.30;;;;;;;30.35;40.50;100832.88;4991550;28;20072;-86
2022/07/25 10:51:12;;;;;;;5.83;2.37;;;;;;;30.14;41.41;100832.88;4991997;28;20749;-86
2022/07/25 10:53:49;;;;;;;3.70;2.20;;;;;;;30.58;40.70;100822.66;4991248;28;20030;-84
2022/07/25 10:56:16;;;;;;;5.95;2.33;;;;;;;30.96;39.68;100836.78;4991928;28;20118;-84
2022/07/25 10:59:00;;;;;;;6.38;2.10;;;;;;;30.94;39.42;100836.44;4977266;28;20043;-85
2022/07/25 11:01:33;;;;;;;8.88;2.10;;;;;;;30.98;39.23;100848.25;4994459;28;20034;-84
2022/07/25 11:04:04;;;;;;;6.25;2.42;;;;;;;30.95;39.35;100843.53;4991383;28;20054;-84
2022/07/25 11:06:40;;;;;;;6.65;2.30;;;;;;;31.44;38.77;100845.78;4991400;28;20022;-84
2022/07/25 11:09:19;;;;;;;5.78;2.45;;;;;;;31.70;38.70;100850.81;4991225;28;20057;-84
2022/07/25 11:11:47;;;;;;;4.23;2.13;;;;;;;31.59;37.10;100850.06;4991217;28;20823;-84
2022/07/25 11:14:24;;;;;;;6.20;1.80;;;;;;;31.38;38.10;100848.19;4973300;28;20285;-85
2022/07/25 11:16:52;;;;;;;9.13;2.15;;;;;;;31.36;38.40;100847.78;4973742;28;20449;-84
2022/07/25 11:19:24;;;;;;;4.82;2.20;;;;;;;31.53;37.77;100851.66;4991248;28;20077;-84
2022/07/25 11:21:54;;;;;;;4.55;2.17;;;;;;;31.76;37.36;100865.06;4991054;28;20014;-85
2022/07/25 11:24:20;;;;;;;3.83;2.55;;;;;;;31.99;36.15;100860.94;4974009;28;20034;-84